sensor_id;sensor_type;location;lat;lon;timestamp;noise_LAeq;noise_LA_min;noise_LA_max;noise_LA01;noise_LA95
43168;Laerm;28773;48.804;9.024;2023-11-19T00:00:04;67.61;63.52;71.68;;
43168;Laerm;28773;48.804;9.024;2023-11-19T00:02:29;67.41;63.00;71.45;;
43168;Laerm;28773;48.804;9.024;2023-11-19T00:04:54;67.01;62.53;71.24;;
43168;Laerm;28773;48.804;9.024;2023-11-19T00:07:20;66.68;61.92;71.07;;
43168;Laerm;28773;48.804;9.024;2023-11-19T00:09:45;66.36;61.59;70.94;;
43168;Laerm;28773;48.804;9.024;2023-11-19T00:12:10;66.24;61.32;70.90;;
43168;Laerm;28773;48.804;9.024;2023-11-19T00:14:35;66.06;60.54;70.93;;
43168;Laerm;28773;48.804;9.024;2023-11-19T00:17:00;64.52;59.73;70.62;;
43168;Laerm;28773;48.804;9.024;2023-11-19T00:19:26;64.70;60.02;70.61;;
43168;Laerm;28773;48.804;9.024;2023-11-19T00:21:51;64.66;59.69;70.68;;
43168;Laerm;28773;48.804;9.024;2023-11-19T00:24:16;64.44;59.75;70.31;;
43168;Laerm;28773;48.804;9.024;2023-11-19T00:26:42;64.64;59.92;70.34;;
43168;Laerm;28773;48.804;9.024;2023-11-19T00:29:07;65.05;60.12;70.72;;
43168;Laerm;28773;48.804;9.024;2023-11-19T00:31:33;64.99;60.36;70.69;;
43168;Laerm;28773;48.804;9.024;2023-11-19T00:33:58;64.88;60.16;70.44;;
43168;Laerm;28773;48.804;9.024;2023-11-19T00:36:23;64.99;59.93;70.58;;
43168;Laerm;28773;48.804;9.024;2023-11-19T00:38:49;65.43;60.47;70.80;;
43168;Laerm;28773;48.804;9.024;2023-11-19T00:41:14;64.58;59.73;70.42;;
43168;Laerm;28773;48.804;9.024;2023-11-19T00:43:41;64.15;58.55;70.26;;
43168;Laerm;28773;48.804;9.024;2023-11-19T00:46:07;64.98;58.64;70.91;;
43168;Laerm;28773;48.804;9.024;2023-11-19T00:48:32;63.92;57.55;70.24;;
43168;Laerm;28773;48.804;9.024;2023-11-19T00:50:57;64.03;57.78;70.23;;
43168;Laerm;28773;48.804;9.024;2023-11-19T00:53:22;64.71;59.77;70.48;;
43168;Laerm;28773;48.804;9.024;2023-11-19T00:55:47;64.75;59.95;70.52;;
43168;Laerm;28773;48.804;9.024;2023-11-19T00:58:12;64.45;58.86;70.42;;
43168;Laerm;28773;48.804;9.024;2023-11-19T01:00:38;64.54;59.15;70.37;;
43168;Laerm;28773;48.804;9.024;2023-11-19T01:03:03;64.62;59.38;70.42;;
43168;Laerm;28773;48.804;9.024;2023-11-19T01:05:28;65.00;60.17;70.54;;
43168;Laerm;28773;48.804;9.024;2023-11-19T01:07:53;65.39;60.35;70.82;;
43168;Laerm;28773;48.804;9.024;2023-11-19T01:10:19;65.85;60.56;70.95;;
43168;Laerm;28773;48.804;9.024;2023-11-19T01:12:44;66.04;60.89;70.96;;
43168;Laerm;28773;48.804;9.024;2023-11-19T01:15:09;65.82;60.36;70.90;;
43168;Laerm;28773;48.804;9.024;2023-11-19T01:17:35;64.87;59.92;70.51;;
43168;Laerm;28773;48.804;9.024;2023-11-19T01:20:01;64.62;59.61;70.43;;
43168;Laerm;28773;48.804;9.024;2023-11-19T01:22:26;65.03;59.93;70.74;;
43168;Laerm;28773;48.804;9.024;2023-11-19T01:24:51;65.31;60.35;70.83;;
43168;Laerm;28773;48.804;9.024;2023-11-19T01:27:17;65.50;60.54;70.82;;
43168;Laerm;28773;48.804;9.024;2023-11-19T01:29:42;65.85;60.58;70.95;;
43168;Laerm;28773;48.804;9.024;2023-11-19T01:32:08;66.16;60.85;71.02;;
43168;Laerm;28773;48.804;9.024;2023-11-19T01:34:33;65.86;60.64;70.92;;
43168;Laerm;28773;48.804;9.024;2023-11-19T01:36:58;65.95;60.63;70.93;;
43168;Laerm;28773;48.804;9.024;2023-11-19T01:39:23;66.22;60.98;71.03;;
43168;Laerm;28773;48.804;9.024;2023-11-19T01:41:48;66.40;61.20;71.08;;
43168;Laerm;28773;48.804;9.024;2023-11-19T01:44:14;66.62;61.59;71.12;;
43168;Laerm;28773;48.804;9.024;2023-11-19T01:46:40;66.82;61.84;71.22;;
43168;Laerm;28773;48.804;9.024;2023-11-19T01:49:06;66.94;62.02;71.28;;
43168;Laerm;28773;48.804;9.024;2023-11-19T01:51:32;66.46;60.76;71.27;;
43168;Laerm;28773;48.804;9.024;2023-11-19T01:53:57;65.37;59.93;70.89;;
43168;Laerm;28773;48.804;9.024;2023-11-19T01:56:23;64.54;59.36;70.38;;
43168;Laerm;28773;48.804;9.024;2023-11-19T01:58:49;64.45;59.06;70.33;;
43168;Laerm;28773;48.804;9.024;2023-11-19T02:01:15;64.25;58.56;70.30;;
43168;Laerm;28773;48.804;9.024;2023-11-19T02:03:40;64.25;57.95;70.49;;
43168;Laerm;28773;48.804;9.024;2023-11-19T02:06:06;64.01;57.53;70.23;;
43168;Laerm;28773;48.804;9.024;2023-11-19T02:08:32;64.47;58.43;70.50;;
43168;Laerm;28773;48.804;9.024;2023-11-19T02:10:57;64.39;58.97;70.43;;
43168;Laerm;28773;48.804;9.024;2023-11-19T02:13:23;64.35;57.77;70.43;;
43168;Laerm;28773;48.804;9.024;2023-11-19T02:15:48;64.63;58.73;70.53;;
43168;Laerm;28773;48.804;9.024;2023-11-19T02:18:46;64.89;59.77;70.62;;
43168;Laerm;28773;48.804;9.024;2023-11-19T02:21:04;65.08;59.85;70.61;;
43168;Laerm;28773;48.804;9.024;2023-11-19T02:23:30;64.98;59.75;70.56;;
43168;Laerm;28773;48.804;9.024;2023-11-19T02:28:20;65.27;60.14;70.92;;
43168;Laerm;28773;48.804;9.024;2023-11-19T02:30:46;65.39;60.27;71.00;;
43168;Laerm;28773;48.804;9.024;2023-11-19T02:33:11;65.43;60.22;70.89;;
43168;Laerm;28773;48.804;9.024;2023-11-19T02:35:36;65.65;60.45;70.91;;
43168;Laerm;28773;48.804;9.024;2023-11-19T02:38:01;66.00;60.61;71.01;;
43168;Laerm;28773;48.804;9.024;2023-11-19T02:40:28;65.71;60.16;71.11;;
43168;Laerm;28773;48.804;9.024;2023-11-19T02:42:54;65.15;59.92;70.73;;
43168;Laerm;28773;48.804;9.024;2023-11-19T02:45:20;65.61;60.19;70.98;;
43168;Laerm;28773;48.804;9.024;2023-11-19T02:47:47;64.88;59.48;70.65;;
43168;Laerm;28773;48.804;9.024;2023-11-19T02:50:12;64.98;59.70;70.65;;
43168;Laerm;28773;48.804;9.024;2023-11-19T02:52:42;64.85;59.57;70.75;;
43168;Laerm;28773;48.804;9.024;2023-11-19T02:55:08;65.53;59.67;71.03;;
43168;Laerm;28773;48.804;9.024;2023-11-19T02:57:35;65.89;60.31;71.00;;
43168;Laerm;28773;48.804;9.024;2023-11-19T03:00:00;66.32;60.92;71.21;;
43168;Laerm;28773;48.804;9.024;2023-11-19T03:02:25;66.53;60.88;71.22;;
43168;Laerm;28773;48.804;9.024;2023-11-19T03:04:58;66.25;60.75;71.09;;
43168;Laerm;28773;48.804;9.024;2023-11-19T03:07:24;66.49;61.04;71.23;;
43168;Laerm;28773;48.804;9.024;2023-11-19T03:09:49;66.72;61.55;71.29;;
43168;Laerm;28773;48.804;9.024;2023-11-19T03:12:14;66.91;61.78;71.35;;
43168;Laerm;28773;48.804;9.024;2023-11-19T03:14:40;66.98;61.90;71.36;;
43168;Laerm;28773;48.804;9.024;2023-11-19T03:17:05;67.08;62.13;71.36;;
43168;Laerm;28773;48.804;9.024;2023-11-19T03:19:30;67.13;62.18;71.50;;
43168;Laerm;28773;48.804;9.024;2023-11-19T03:21:55;67.49;62.48;71.83;;
43168;Laerm;28773;48.804;9.024;2023-11-19T03:24:21;67.82;63.16;71.93;;
43168;Laerm;28773;48.804;9.024;2023-11-19T03:26:49;67.50;62.76;71.68;;
43168;Laerm;28773;48.804;9.024;2023-11-19T03:29:17;67.37;62.52;71.63;;
43168;Laerm;28773;48.804;9.024;2023-11-19T03:31:42;67.42;62.58;71.69;;
43168;Laerm;28773;48.804;9.024;2023-11-19T03:34:08;67.35;62.38;71.70;;
43168;Laerm;28773;48.804;9.024;2023-11-19T03:36:33;67.08;61.82;71.54;;
43168;Laerm;28773;48.804;9.024;2023-11-19T03:38:58;67.07;61.90;71.38;;
43168;Laerm;28773;48.804;9.024;2023-11-19T03:41:24;67.07;62.10;71.42;;
43168;Laerm;28773;48.804;9.024;2023-11-19T03:43:49;66.69;61.47;71.29;;
43168;Laerm;28773;48.804;9.024;2023-11-19T03:46:20;66.78;61.72;71.29;;
43168;Laerm;28773;48.804;9.024;2023-11-19T03:48:46;66.79;61.73;71.31;;
43168;Laerm;28773;48.804;9.024;2023-11-19T03:51:11;66.89;61.74;71.37;;
43168;Laerm;28773;48.804;9.024;2023-11-19T03:53:40;67.25;62.11;71.80;;
43168;Laerm;28773;48.804;9.024;2023-11-19T03:56:05;67.76;62.89;71.88;;
43168;Laerm;28773;48.804;9.024;2023-11-19T03:58:30;67.80;63.40;71.87;;
43168;Laerm;28773;48.804;9.024;2023-11-19T04:00:56;67.75;63.38;71.86;;
43168;Laerm;28773;48.804;9.024;2023-11-19T04:03:21;67.77;62.98;71.88;;
43168;Laerm;28773;48.804;9.024;2023-11-19T04:05:46;67.83;63.49;71.88;;
43168;Laerm;28773;48.804;9.024;2023-11-19T04:08:12;67.89;63.48;71.95;;
43168;Laerm;28773;48.804;9.024;2023-11-19T04:10:37;67.84;63.55;71.91;;
43168;Laerm;28773;48.804;9.024;2023-11-19T04:13:02;67.75;62.99;71.90;;
43168;Laerm;28773;48.804;9.024;2023-11-19T04:15:27;67.46;62.49;71.72;;
43168;Laerm;28773;48.804;9.024;2023-11-19T04:17:52;67.04;61.74;71.48;;
43168;Laerm;28773;48.804;9.024;2023-11-19T04:20:18;66.63;61.20;71.29;;
43168;Laerm;28773;48.804;9.024;2023-11-19T04:22:43;65.77;60.36;71.16;;
43168;Laerm;28773;48.804;9.024;2023-11-19T04:25:08;64.50;57.98;70.74;;
43168;Laerm;28773;48.804;9.024;2023-11-19T04:27:34;63.52;56.00;70.24;;
43168;Laerm;28773;48.804;9.024;2023-11-19T04:29:59;62.95;53.32;70.12;;
43168;Laerm;28773;48.804;9.024;2023-11-19T04:32:26;62.26;51.28;70.04;;
43168;Laerm;28773;48.804;9.024;2023-11-19T04:34:52;62.25;50.22;70.23;;
43168;Laerm;28773;48.804;9.024;2023-11-19T04:37:17;62.42;51.41;70.27;;
43168;Laerm;28773;48.804;9.024;2023-11-19T04:39:44;62.43;51.87;70.36;;
43168;Laerm;28773;48.804;9.024;2023-11-19T04:42:09;62.44;50.45;70.50;;
43168;Laerm;28773;48.804;9.024;2023-11-19T04:44:34;62.40;50.32;70.43;;
43168;Laerm;28773;48.804;9.024;2023-11-19T04:46:59;62.47;51.82;70.45;;
43168;Laerm;28773;48.804;9.024;2023-11-19T04:49:24;62.44;48.88;70.47;;
43168;Laerm;28773;48.804;9.024;2023-11-19T04:51:51;62.40;51.44;70.53;;
43168;Laerm;28773;48.804;9.024;2023-11-19T04:54:17;62.45;51.93;70.34;;
43168;Laerm;28773;48.804;9.024;2023-11-19T04:56:45;62.38;51.58;70.40;;
43168;Laerm;28773;48.804;9.024;2023-11-19T04:59:10;62.36;51.67;70.45;;
43168;Laerm;28773;48.804;9.024;2023-11-19T05:01:35;62.34;50.85;70.35;;
43168;Laerm;28773;48.804;9.024;2023-11-19T05:04:00;62.36;51.27;70.39;;
43168;Laerm;28773;48.804;9.024;2023-11-19T05:06:30;62.33;51.55;70.32;;
43168;Laerm;28773;48.804;9.024;2023-11-19T05:08:55;62.34;49.70;70.21;;
43168;Laerm;28773;48.804;9.024;2023-11-19T05:11:21;62.36;50.77;70.38;;
43168;Laerm;28773;48.804;9.024;2023-11-19T05:13:46;62.32;51.26;70.25;;
43168;Laerm;28773;48.804;9.024;2023-11-19T05:16:11;62.33;50.89;70.44;;
43168;Laerm;28773;48.804;9.024;2023-11-19T05:18:39;62.34;49.94;70.33;;
43168;Laerm;28773;48.804;9.024;2023-11-19T05:21:04;62.33;49.06;70.31;;
43168;Laerm;28773;48.804;9.024;2023-11-19T05:23:29;62.38;50.63;70.32;;
43168;Laerm;28773;48.804;9.024;2023-11-19T05:25:54;62.38;50.35;70.39;;
43168;Laerm;28773;48.804;9.024;2023-11-19T05:28:20;62.37;50.99;70.28;;
43168;Laerm;28773;48.804;9.024;2023-11-19T05:30:45;62.35;51.42;70.29;;
43168;Laerm;28773;48.804;9.024;2023-11-19T05:33:10;62.34;49.94;70.30;;
43168;Laerm;28773;48.804;9.024;2023-11-19T05:35:36;62.33;51.05;70.30;;
43168;Laerm;28773;48.804;9.024;2023-11-19T05:38:01;62.35;51.59;70.27;;
43168;Laerm;28773;48.804;9.024;2023-11-19T05:40:27;62.34;51.39;70.31;;
43168;Laerm;28773;48.804;9.024;2023-11-19T05:42:53;62.32;51.26;70.29;;
43168;Laerm;28773;48.804;9.024;2023-11-19T05:45:18;62.34;51.02;70.47;;
43168;Laerm;28773;48.804;9.024;2023-11-19T05:47:43;62.28;49.89;70.41;;
43168;Laerm;28773;48.804;9.024;2023-11-19T05:50:08;62.32;50.95;70.32;;
43168;Laerm;28773;48.804;9.024;2023-11-19T05:52:35;62.32;50.22;70.29;;
43168;Laerm;28773;48.804;9.024;2023-11-19T05:55:00;62.33;51.23;70.35;;
43168;Laerm;28773;48.804;9.024;2023-11-19T05:57:28;62.31;51.16;70.30;;
43168;Laerm;28773;48.804;9.024;2023-11-19T05:59:54;62.31;51.20;70.32;;
43168;Laerm;28773;48.804;9.024;2023-11-19T06:02:19;62.30;51.41;70.34;;
43168;Laerm;28773;48.804;9.024;2023-11-19T06:04:44;62.28;50.23;70.27;;
43168;Laerm;28773;48.804;9.024;2023-11-19T06:07:12;62.29;50.07;70.22;;
43168;Laerm;28773;48.804;9.024;2023-11-19T06:09:37;62.28;50.80;70.22;;
43168;Laerm;28773;48.804;9.024;2023-11-19T06:12:03;62.28;51.34;70.30;;
43168;Laerm;28773;48.804;9.024;2023-11-19T06:14:29;62.29;50.77;70.17;;
43168;Laerm;28773;48.804;9.024;2023-11-19T06:16:54;62.27;50.81;70.31;;
43168;Laerm;28773;48.804;9.024;2023-11-19T06:19:19;62.29;51.41;70.29;;
43168;Laerm;28773;48.804;9.024;2023-11-19T06:21:44;62.26;51.28;70.36;;
43168;Laerm;28773;48.804;9.024;2023-11-19T06:24:09;62.29;51.54;70.36;;
43168;Laerm;28773;48.804;9.024;2023-11-19T06:26:34;62.32;51.62;70.37;;
43168;Laerm;28773;48.804;9.024;2023-11-19T06:29:00;62.33;51.37;70.31;;
43168;Laerm;28773;48.804;9.024;2023-11-19T06:31:25;62.34;50.71;70.44;;
43168;Laerm;28773;48.804;9.024;2023-11-19T06:33:50;62.33;51.32;70.32;;
43168;Laerm;28773;48.804;9.024;2023-11-19T06:36:15;62.30;51.24;70.33;;
43168;Laerm;28773;48.804;9.024;2023-11-19T06:38:43;62.31;51.07;70.33;;
43168;Laerm;28773;48.804;9.024;2023-11-19T06:41:09;62.35;50.19;70.37;;
43168;Laerm;28773;48.804;9.024;2023-11-19T06:43:34;62.34;50.58;70.45;;
43168;Laerm;28773;48.804;9.024;2023-11-19T06:45:59;62.30;51.13;70.35;;
43168;Laerm;28773;48.804;9.024;2023-11-19T06:48:24;62.32;51.70;70.35;;
43168;Laerm;28773;48.804;9.024;2023-11-19T06:50:50;62.33;51.00;70.32;;
43168;Laerm;28773;48.804;9.024;2023-11-19T06:53:15;62.32;51.44;70.27;;
43168;Laerm;28773;48.804;9.024;2023-11-19T06:55:40;62.30;50.65;70.37;;
43168;Laerm;28773;48.804;9.024;2023-11-19T06:58:05;62.30;50.89;70.30;;
43168;Laerm;28773;48.804;9.024;2023-11-19T07:00:32;62.31;51.33;70.25;;
43168;Laerm;28773;48.804;9.024;2023-11-19T07:02:57;62.28;51.19;70.39;;
43168;Laerm;28773;48.804;9.024;2023-11-19T07:05:23;62.26;51.37;70.32;;
43168;Laerm;28773;48.804;9.024;2023-11-19T07:07:48;62.29;50.70;70.30;;
43168;Laerm;28773;48.804;9.024;2023-11-19T07:10:14;62.28;51.38;70.25;;
43168;Laerm;28773;48.804;9.024;2023-11-19T07:12:39;62.28;51.37;70.39;;
43168;Laerm;28773;48.804;9.024;2023-11-19T07:15:04;62.29;51.24;73.31;;
43168;Laerm;28773;48.804;9.024;2023-11-19T07:17:30;62.31;51.67;70.34;;
43168;Laerm;28773;48.804;9.024;2023-11-19T07:19:55;62.28;51.55;70.36;;
43168;Laerm;28773;48.804;9.024;2023-11-19T07:22:24;62.26;51.82;70.30;;
43168;Laerm;28773;48.804;9.024;2023-11-19T07:24:49;62.28;50.67;70.26;;
43168;Laerm;28773;48.804;9.024;2023-11-19T07:27:15;62.25;51.76;70.27;;
43168;Laerm;28773;48.804;9.024;2023-11-19T07:29:40;62.28;51.85;70.29;;
43168;Laerm;28773;48.804;9.024;2023-11-19T07:32:06;62.25;51.55;70.26;;
43168;Laerm;28773;48.804;9.024;2023-11-19T07:34:33;62.27;51.56;70.36;;
43168;Laerm;28773;48.804;9.024;2023-11-19T07:36:59;62.24;51.92;70.27;;
43168;Laerm;28773;48.804;9.024;2023-11-19T07:39:27;62.24;51.56;70.20;;
43168;Laerm;28773;48.804;9.024;2023-11-19T07:41:52;62.28;51.92;70.39;;
43168;Laerm;28773;48.804;9.024;2023-11-19T07:44:17;62.29;51.14;70.38;;
43168;Laerm;28773;48.804;9.024;2023-11-19T07:46:43;62.25;52.21;70.35;;
43168;Laerm;28773;48.804;9.024;2023-11-19T07:49:09;62.28;51.98;70.30;;
43168;Laerm;28773;48.804;9.024;2023-11-19T07:51:35;62.28;51.60;70.30;;
43168;Laerm;28773;48.804;9.024;2023-11-19T07:54:01;62.30;51.74;70.41;;
43168;Laerm;28773;48.804;9.024;2023-11-19T07:56:26;62.30;51.89;70.32;;
43168;Laerm;28773;48.804;9.024;2023-11-19T07:58:52;62.28;51.93;70.34;;
43168;Laerm;28773;48.804;9.024;2023-11-19T08:01:17;62.29;52.30;70.39;;
43168;Laerm;28773;48.804;9.024;2023-11-19T08:03:43;62.34;52.43;70.42;;
43168;Laerm;28773;48.804;9.024;2023-11-19T08:06:08;62.36;52.27;70.35;;
43168;Laerm;28773;48.804;9.024;2023-11-19T08:08:33;62.35;52.12;70.31;;
43168;Laerm;28773;48.804;9.024;2023-11-19T08:10:59;62.33;52.62;70.14;;
43168;Laerm;28773;48.804;9.024;2023-11-19T08:13:24;62.36;52.65;70.35;;
43168;Laerm;28773;48.804;9.024;2023-11-19T08:15:50;62.37;52.54;69.97;;
43168;Laerm;28773;48.804;9.024;2023-11-19T08:18:15;62.38;52.98;69.97;;
43168;Laerm;28773;48.804;9.024;2023-11-19T08:20:41;62.42;53.78;70.04;;
43168;Laerm;28773;48.804;9.024;2023-11-19T08:23:07;62.46;53.32;70.07;;
43168;Laerm;28773;48.804;9.024;2023-11-19T08:25:33;62.50;52.87;70.06;;
43168;Laerm;28773;48.804;9.024;2023-11-19T08:27:58;62.56;53.37;70.19;;
43168;Laerm;28773;48.804;9.024;2023-11-19T08:30:24;62.56;53.18;70.21;;
43168;Laerm;28773;48.804;9.024;2023-11-19T08:32:49;62.64;53.50;70.31;;
43168;Laerm;28773;48.804;9.024;2023-11-19T08:35:15;62.66;54.06;70.32;;
43168;Laerm;28773;48.804;9.024;2023-11-19T08:37:41;62.70;53.66;70.50;;
43168;Laerm;28773;48.804;9.024;2023-11-19T08:40:07;62.70;54.10;70.77;;
43168;Laerm;28773;48.804;9.024;2023-11-19T08:42:32;62.71;54.06;70.28;;
43168;Laerm;28773;48.804;9.024;2023-11-19T08:44:57;62.70;53.83;70.28;;
43168;Laerm;28773;48.804;9.024;2023-11-19T08:47:22;62.68;53.64;70.27;;
43168;Laerm;28773;48.804;9.024;2023-11-19T08:49:48;62.70;54.09;70.31;;
43168;Laerm;28773;48.804;9.024;2023-11-19T08:52:15;62.73;53.76;70.21;;
43168;Laerm;28773;48.804;9.024;2023-11-19T08:54:42;62.72;53.90;70.28;;
43168;Laerm;28773;48.804;9.024;2023-11-19T08:57:07;62.79;54.85;70.31;;
43168;Laerm;28773;48.804;9.024;2023-11-19T08:59:33;62.83;53.57;70.37;;
43168;Laerm;28773;48.804;9.024;2023-11-19T09:01:59;62.88;53.82;70.40;;
43168;Laerm;28773;48.804;9.024;2023-11-19T09:04:24;62.93;54.51;70.35;;
43168;Laerm;28773;48.804;9.024;2023-11-19T09:06:49;62.98;55.09;70.51;;
43168;Laerm;28773;48.804;9.024;2023-11-19T09:09:14;63.02;54.58;70.44;;
43168;Laerm;28773;48.804;9.024;2023-11-19T09:11:39;63.07;54.27;70.57;;
43168;Laerm;28773;48.804;9.024;2023-11-19T09:14:05;63.14;55.23;70.51;;
43168;Laerm;28773;48.804;9.024;2023-11-19T09:16:30;63.19;55.05;70.49;;
43168;Laerm;28773;48.804;9.024;2023-11-19T09:18:55;63.25;55.45;70.63;;
43168;Laerm;28773;48.804;9.024;2023-11-19T09:21:20;63.23;55.51;70.49;;
43168;Laerm;28773;48.804;9.024;2023-11-19T09:23:45;63.28;55.88;70.58;;
43168;Laerm;28773;48.804;9.024;2023-11-19T09:26:13;63.32;55.66;70.70;;
43168;Laerm;28773;48.804;9.024;2023-11-19T09:28:38;63.31;55.53;70.54;;
43168;Laerm;28773;48.804;9.024;2023-11-19T09:31:12;63.39;55.75;70.54;;
43168;Laerm;28773;48.804;9.024;2023-11-19T09:33:37;63.42;55.42;70.63;;
43168;Laerm;28773;48.804;9.024;2023-11-19T09:36:03;63.41;55.91;70.57;;
43168;Laerm;28773;48.804;9.024;2023-11-19T09:38:28;63.46;55.82;70.92;;
43168;Laerm;28773;48.804;9.024;2023-11-19T09:40:53;63.48;56.07;70.68;;
43168;Laerm;28773;48.804;9.024;2023-11-19T09:43:18;63.39;56.20;70.60;;
43168;Laerm;28773;48.804;9.024;2023-11-19T09:45:50;63.45;56.41;70.52;;
43168;Laerm;28773;48.804;9.024;2023-11-19T09:48:18;63.43;56.08;70.62;;
43168;Laerm;28773;48.804;9.024;2023-11-19T09:50:44;63.44;56.45;70.76;;
43168;Laerm;28773;48.804;9.024;2023-11-19T09:53:10;63.41;55.85;70.67;;
43168;Laerm;28773;48.804;9.024;2023-11-19T09:55:35;63.44;55.82;70.56;;
43168;Laerm;28773;48.804;9.024;2023-11-19T09:58:00;63.46;55.71;70.64;;
43168;Laerm;28773;48.804;9.024;2023-11-19T10:00:26;63.50;56.59;70.64;;
43168;Laerm;28773;48.804;9.024;2023-11-19T10:02:52;63.54;56.89;70.69;;
43168;Laerm;28773;48.804;9.024;2023-11-19T10:05:18;63.61;56.44;70.72;;
43168;Laerm;28773;48.804;9.024;2023-11-19T10:07:45;63.66;56.93;70.82;;
43168;Laerm;28773;48.804;9.024;2023-11-19T10:10:10;63.69;57.21;70.85;;
43168;Laerm;28773;48.804;9.024;2023-11-19T10:12:40;63.70;57.60;70.79;;
43168;Laerm;28773;48.804;9.024;2023-11-19T10:15:05;63.68;57.69;70.78;;
43168;Laerm;28773;48.804;9.024;2023-11-19T10:17:32;63.74;58.01;70.83;;
43168;Laerm;28773;48.804;9.024;2023-11-19T10:19:58;63.76;57.10;70.81;;
43168;Laerm;28773;48.804;9.024;2023-11-19T10:22:24;63.75;57.78;70.94;;
43168;Laerm;28773;48.804;9.024;2023-11-19T10:24:50;63.78;57.99;70.83;;
43168;Laerm;28773;48.804;9.024;2023-11-19T10:27:15;63.79;57.83;70.85;;
43168;Laerm;28773;48.804;9.024;2023-11-19T10:29:40;63.79;57.76;70.85;;
43168;Laerm;28773;48.804;9.024;2023-11-19T10:32:09;63.81;57.90;70.79;;
43168;Laerm;28773;48.804;9.024;2023-11-19T10:34:34;63.76;58.42;70.81;;
43168;Laerm;28773;48.804;9.024;2023-11-19T10:37:02;63.77;58.16;70.81;;
43168;Laerm;28773;48.804;9.024;2023-11-19T10:42:15;63.77;57.96;70.75;;
43168;Laerm;28773;48.804;9.024;2023-11-19T10:44:41;63.77;58.16;70.80;;
43168;Laerm;28773;48.804;9.024;2023-11-19T10:47:07;63.77;58.19;70.77;;
43168;Laerm;28773;48.804;9.024;2023-11-19T10:49:33;63.81;58.06;70.90;;
43168;Laerm;28773;48.804;9.024;2023-11-19T10:52:00;63.87;58.75;71.10;;
43168;Laerm;28773;48.804;9.024;2023-11-19T10:54:25;63.94;58.06;70.96;;
43168;Laerm;28773;48.804;9.024;2023-11-19T10:56:55;64.01;58.30;71.03;;
43168;Laerm;28773;48.804;9.024;2023-11-19T10:59:20;64.09;58.84;70.87;;
43168;Laerm;28773;48.804;9.024;2023-11-19T11:01:46;64.14;59.08;71.01;;
43168;Laerm;28773;48.804;9.024;2023-11-19T11:04:19;64.13;58.39;70.98;;
43168;Laerm;28773;48.804;9.024;2023-11-19T11:06:45;64.20;59.28;71.05;;
43168;Laerm;28773;48.804;9.024;2023-11-19T11:09:12;64.27;59.34;70.97;;
43168;Laerm;28773;48.804;9.024;2023-11-19T11:11:39;64.23;59.33;71.10;;
43168;Laerm;28773;48.804;9.024;2023-11-19T11:14:05;64.21;59.31;71.07;;
43168;Laerm;28773;48.804;9.024;2023-11-19T11:16:30;64.24;59.26;70.97;;
43168;Laerm;28773;48.804;9.024;2023-11-19T11:18:56;64.24;59.03;70.90;;
43168;Laerm;28773;48.804;9.024;2023-11-19T11:21:22;64.19;59.31;71.00;;
43168;Laerm;28773;48.804;9.024;2023-11-19T11:28:52;64.22;59.50;70.93;;
43168;Laerm;28773;48.804;9.024;2023-11-19T11:34:29;64.20;59.04;70.94;;
43168;Laerm;28773;48.804;9.024;2023-11-19T11:39:42;64.11;59.12;70.89;;
43168;Laerm;28773;48.804;9.024;2023-11-19T11:45:00;64.08;58.89;70.85;;
43168;Laerm;28773;48.804;9.024;2023-11-19T11:47:25;64.11;58.95;70.87;;
43168;Laerm;28773;48.804;9.024;2023-11-19T11:49:51;64.14;58.91;70.91;;
43168;Laerm;28773;48.804;9.024;2023-11-19T11:52:17;64.16;59.25;70.45;;
43168;Laerm;28773;48.804;9.024;2023-11-19T11:54:42;64.18;59.30;70.80;;
43168;Laerm;28773;48.804;9.024;2023-11-19T11:57:11;64.11;59.07;70.76;;
43168;Laerm;28773;48.804;9.024;2023-11-19T11:59:37;64.08;59.00;70.95;;
43168;Laerm;28773;48.804;9.024;2023-11-19T12:02:03;64.11;58.93;70.84;;
43168;Laerm;28773;48.804;9.024;2023-11-19T12:04:28;64.14;59.01;71.03;;
43168;Laerm;28773;48.804;9.024;2023-11-19T12:07:06;64.10;58.55;70.67;;
43168;Laerm;28773;48.804;9.024;2023-11-19T12:09:31;64.12;59.09;71.01;;
43168;Laerm;28773;48.804;9.024;2023-11-19T12:20:07;64.56;59.63;70.84;;
43168;Laerm;28773;48.804;9.024;2023-11-19T12:22:43;64.53;59.44;71.07;;
43168;Laerm;28773;48.804;9.024;2023-11-19T12:25:12;64.52;59.88;71.03;;
43168;Laerm;28773;48.804;9.024;2023-11-19T12:27:44;64.63;60.06;71.06;;
43168;Laerm;28773;48.804;9.024;2023-11-19T12:30:09;64.64;60.14;70.76;;
43168;Laerm;28773;48.804;9.024;2023-11-19T12:32:41;64.64;60.33;71.17;;
43168;Laerm;28773;48.804;9.024;2023-11-19T12:35:09;64.68;60.19;71.14;;
43168;Laerm;28773;48.804;9.024;2023-11-19T12:37:41;64.64;60.24;70.96;;
43168;Laerm;28773;48.804;9.024;2023-11-19T12:42:42;64.52;60.13;70.80;;
43168;Laerm;28773;48.804;9.024;2023-11-19T12:45:07;64.53;60.09;70.91;;
43168;Laerm;28773;48.804;9.024;2023-11-19T12:47:36;64.49;59.95;70.91;;
43168;Laerm;28773;48.804;9.024;2023-11-19T12:50:02;64.43;59.81;70.85;;
43168;Laerm;28773;48.804;9.024;2023-11-19T12:52:27;64.45;59.92;70.99;;
43168;Laerm;28773;48.804;9.024;2023-11-19T12:54:52;64.50;59.92;70.99;;
43168;Laerm;28773;48.804;9.024;2023-11-19T12:57:17;64.53;60.15;70.93;;
43168;Laerm;28773;48.804;9.024;2023-11-19T12:59:56;64.58;60.27;71.11;;
43168;Laerm;28773;48.804;9.024;2023-11-19T13:02:44;64.60;60.03;71.02;;
43168;Laerm;28773;48.804;9.024;2023-11-19T13:05:22;64.63;60.07;71.02;;
43168;Laerm;28773;48.804;9.024;2023-11-19T13:07:47;64.65;59.75;70.98;;
43168;Laerm;28773;48.804;9.024;2023-11-19T13:10:13;64.67;60.07;70.87;;
43168;Laerm;28773;48.804;9.024;2023-11-19T13:12:38;64.59;60.36;70.92;;
43168;Laerm;28773;48.804;9.024;2023-11-19T13:15:04;64.55;60.25;70.50;;
43168;Laerm;28773;48.804;9.024;2023-11-19T13:17:29;64.50;59.68;70.88;;
43168;Laerm;28773;48.804;9.024;2023-11-19T13:19:54;64.50;59.90;70.96;;
43168;Laerm;28773;48.804;9.024;2023-11-19T13:22:21;64.54;59.87;70.99;;
43168;Laerm;28773;48.804;9.024;2023-11-19T13:24:46;64.55;59.78;71.07;;
43168;Laerm;28773;48.804;9.024;2023-11-19T13:27:12;64.54;60.35;70.99;;
43168;Laerm;28773;48.804;9.024;2023-11-19T13:29:38;64.56;60.03;70.76;;
43168;Laerm;28773;48.804;9.024;2023-11-19T13:32:03;64.57;59.74;71.13;;
43168;Laerm;28773;48.804;9.024;2023-11-19T13:34:29;64.58;59.98;71.08;;
43168;Laerm;28773;48.804;9.024;2023-11-19T13:36:54;64.60;60.12;70.61;;
43168;Laerm;28773;48.804;9.024;2023-11-19T13:39:19;64.62;59.93;70.54;;
43168;Laerm;28773;48.804;9.024;2023-11-19T13:41:48;64.66;60.15;70.73;;
43168;Laerm;28773;48.804;9.024;2023-11-19T13:44:13;64.64;60.29;70.84;;
43168;Laerm;28773;48.804;9.024;2023-11-19T13:46:38;64.58;60.17;70.83;;
43168;Laerm;28773;48.804;9.024;2023-11-19T13:49:04;64.58;60.06;71.00;;
43168;Laerm;28773;48.804;9.024;2023-11-19T13:51:29;64.62;59.95;70.75;;
43168;Laerm;28773;48.804;9.024;2023-11-19T13:53:54;64.59;60.09;70.98;;
43168;Laerm;28773;48.804;9.024;2023-11-19T13:56:19;64.55;60.20;70.95;;
43168;Laerm;28773;48.804;9.024;2023-11-19T13:58:44;64.53;60.04;71.00;;
43168;Laerm;28773;48.804;9.024;2023-11-19T14:01:10;64.52;59.91;70.78;;
43168;Laerm;28773;48.804;9.024;2023-11-19T14:03:37;64.51;60.02;70.82;;
43168;Laerm;28773;48.804;9.024;2023-11-19T14:06:02;64.47;60.15;70.53;;